首页
METAR-TAF:

METAR-TAF

机场 :

烏法, 俄罗斯

纬度: 54-43-48N, 经度: 055-55-48E, 海拔: 137米

当前天气观测

该预报发布于24分钟前的14:30 UTC
风速10节,风向
温度 -3°C
湿度 80%
气压 1021 hPa
能见度10公里或以上
1500米以下无云,无积雨云

METAR: UWUU 231430Z 18005MPS CAVOK M03/M06 Q1021 R14R/0///60 NOSIG

时间: 19:54 (14:54 UTC)

预报

该预报发布于57分钟前的13:57 UTC
预报有效从23日的 15点(UTC)到 24日的 15点(UTC)
风速16节,风向,有时为25节阵风
能見度: 4000
阴天层高于1100英尺
小雪
短暂存在
从 23日的 15点(UTC)到 23日的 21点(UTC)
能見度: 2100
阴天层高于700英尺
小雪, 高吹雪
短暂存在
从 23日的 21点(UTC)到 24日的 15点(UTC)
风速19节,风向南转西南,有时为29节阵风
能見度: 0800
层高于300英尺
大阵雪

TAF: UWUU 231357Z 2315/2415 18008G13MPS 4000 -SN OVC011 TXM00/2412Z TNM03/2315Z TEMPO 2315/2321 2100 -SN BLSN OVC007 TEMPO 2321/2415 20010G15MPS 0800 +SHSN VV003

超过4000个机场的气象观测和天气预报(METAR&TAF报告)。

可查询的气象台以黄色和红色小点在地图上表示。

将鼠标移到小点上方,可查看气象台名称。

然后点击查看天气观测和预报。

如需切换地图:点击带黑十字的绿色按钮放大地图;点击带横线的绿色按钮缩小地图;或者点击绿色箭头查看邻近地区的地图。


METAR-TAF: